Date,TemperatureHighF,TemperatureAvgF,TemperatureLowF,DewpointHighF,DewpointAvgF,DewpointLowF,HumidityHigh,HumidityAvg,HumidityLow,PressureMaxIn,PressureMinIn,WindSpeedMaxMPH,WindSpeedAvgMPH,GustSpeedMaxMPH,PrecipitationSumIn
2013-1-1,17.4,1.6,-17.3,14.0,-3.1,-23.4,86,80,72,30.21,29.93,20,1,22,0.00
2013-1-2,20.1,18.3,15.1,17.1,14.6,10.9,88,85,82,30.09,29.87,30,2,30,0.01
2013-1-3,16.3,12.1,5.2,11.1,7.0,0.5,84,80,67,30.20,29.92,32,6,38,0.00
2013-1-4,33.6,19.9,11.8,25.0,14.1,7.7,86,78,59,30.09,29.91,22,1,22,0.00
2013-1-5,23.9,15.2,7.3,17.6,11.0,3.2,87,83,75,30.04,29.86,25,0,25,0.00
2013-1-6,22.3,13.1,3.7,11.7,6.2,-0.9,84,74,56,30.18,29.86,27,2,28,0.00
2013-1-7,36.3,24.2,11.8,25.0,17.8,7.9,85,77,62,29.92,29.75,38,6,38,0.00
2013-1-8,31.8,21.7,9.9,24.4,17.2,5.9,88,83,72,29.93,29.70,38,2,38,0.00
2013-1-9,31.6,26.5,21.0,24.4,18.7,15.4,80,72,59,30.28,29.78,65,7,70,0.00
2013-1-10,42.6,32.6,20.7,28.8,23.2,15.3,89,70,40,30.19,29.68,50,7,53,0.05
2013-1-11,34.2,32.8,31.5,32.0,30.6,28.6,92,91,89,29.68,29.34,22,1,22,0.27
2013-1-12,32.0,12.4,0.9,29.8,7.2,-4.9,92,79,70,30.06,29.33,38,4,38,0.02
2013-1-13,9.3,1.8,-5.3,1.4,-4.0,-10.3,89,76,66,30.16,30.02,25,1,25,0.00
2013-1-14,11.7,4.9,-2.4,1.0,-2.1,-7.4,85,73,58,30.31,30.16,27,3,28,0.00
2013-1-15,24.6,13.8,2.8,12.0,4.7,-2.6,81,68,43,30.19,29.63,45,8,50,0.00
2013-1-16,28.0,17.5,1.4,24.1,7.3,-11.4,87,65,42,30.24,29.57,43,6,45,0.00
2013-1-17,14.4,5.2,-1.1,2.5,-4.2,-11.7,75,65,56,30.33,30.20,25,1,25,0.00
2013-1-18,25.7,16.8,7.5,18.1,11.3,0.3,90,79,71,30.21,29.71,20,0,20,0.04
2013-1-19,29.7,12.9,-4.2,24.1,6.0,-11.6,88,74,59,30.21,29.65,63,8,63,0.00
2013-1-20,1.6,-6.0,-13.4,-5.3,-12.9,-19.7,75,71,66,30.32,30.21,32,4,32,0.00
2013-1-21,-6.3,-13.4,-19.3,-16.6,-20.8,-24.7,75,69,59,30.26,30.19,27,4,32,0.00
2013-1-22,0.5,-10.3,-23.1,-7.8,-17.4,-29.0,78,70,58,30.30,30.16,22,3,25,0.00
2013-1-23,5.2,-1.8,-13.2,0.0,-10.0,-21.3,82,68,51,30.58,30.09,55,8,58,0.00
2013-1-24,5.4,-5.1,-14.4,-1.7,-13.6,-21.8,72,66,59,30.60,30.06,27,3,40,0.00
2013-1-25,12.0,6.9,-5.1,7.2,-0.3,-10.5,82,72,62,30.29,29.85,38,6,40,0.00
2013-1-26,13.5,3.7,-9.6,5.5,-3.1,-14.8,91,73,61,30.30,30.07,25,2,25,0.00
2013-1-27,28.9,21.3,10.2,25.3,15.1,4.6,89,77,64,30.07,29.82,22,1,25,0.00
2013-1-28,31.8,29.4,27.0,29.8,27.3,24.4,93,92,89,29.86,29.68,22,0,22,0.10
2013-1-29,30.6,27.1,20.7,28.8,23.9,16.5,93,88,82,29.82,29.57,30,2,35,0.07
2013-1-30,20.7,10.1,1.9,16.9,4.7,-3.6,85,78,72,29.80,29.70,43,8,43,0.00
2013-1-31,2.3,-4.4,-15.7,-3.3,-11.3,-21.8,79,72,63,30.20,29.76,40,8,43,0.00